Time;durP1;ratioP1;P1;durP2;ratioP2;P2;SDS_P1;SDS_P2;PMS_P1;PMS_P2;Temp;Humidity;BMP_temperature;BMP_pressure;BME280_temperature;BME280_humidity;BME280_pressure;Samples;Min_cycle;Max_cycle;Signal;HPM_P1;HPM_P2
2023/02/28 05:00:15;;;;;;;12.30;5.90;;;;;;;7.78;73.51;100215.09;4900053;29;20064;-96
2023/02/28 05:03:43;;;;;;;;;;;;;;;;;;;;;
2023/02/28 05:06:48;;;;;;;6.88;4.70;;;;;;;8.04;72.76;100224.59;4901778;29;20060;-95
2023/02/28 05:09:42;;;;;;;7.40;4.45;;;;;;;8.06;72.81;100227.88;4884156;29;20037;-96
2023/02/28 05:14:44;;;;;;;8.60;5.53;;;;;;;8.02;72.44;100215.97;5425626;23;20090;-92
2023/02/28 05:20:17;;;;;;;13.50;6.18;;;;;;;8.11;71.98;100236.03;5399115;23;20067;-96
2023/02/28 05:23:05;;;;;;;7.30;5.35;;;;;;;7.96;72.16;100212.34;4922663;29;20091;-94
2023/02/28 05:25:34;;;;;;;9.88;4.95;;;;;;;8.21;71.89;100247.00;4919695;29;20059;-94
2023/02/28 05:28:34;;;;;;;8.18;5.05;;;;;;;8.13;72.57;100228.56;4922387;29;20051;-94
2023/02/28 05:31:12;;;;;;;9.77;5.45;;;;;;;8.26;72.29;100239.09;4875930;29;20118;-95
2023/02/28 05:33:40;;;;;;;11.30;5.93;;;;;;;8.33;71.86;100238.97;4882013;29;20499;-96
2023/02/28 05:36:16;;;;;;;7.57;4.95;;;;;;;8.17;71.96;100208.28;4883315;29;20032;-95
2023/02/28 05:39:12;;;;;;;;;;;;;;;;;;;;;
2023/02/28 05:42:00;;;;;;;8.85;4.93;;;;;;;8.40;70.43;100217.41;4864687;29;20068;-95
2023/02/28 05:44:51;;;;;;;10.43;5.28;;;;;;;8.41;70.60;100224.44;4861339;29;20041;-95
2023/02/28 05:47:20;;;;;;;8.07;5.28;;;;;;;8.38;70.55;100231.03;4950148;23;20095;-94
2023/02/28 05:50:09;;;;;;;8.95;4.90;;;;;;;8.46;70.71;100240.66;4896521;29;20066;-96
2023/02/28 05:52:37;;;;;;;10.70;5.38;;;;;;;8.33;71.55;100256.94;4881274;29;20045;-95
2023/02/28 05:55:06;;;;;;;10.75;5.50;;;;;;;8.44;71.43;100265.03;4882553;29;20044;-95
2023/02/28 05:57:35;;;;;;;9.27;5.45;;;;;;;8.42;71.30;100244.84;4913104;29;20029;-95
2023/02/28 06:00:23;;;;;;;8.55;5.40;;;;;;;8.69;70.22;100261.31;4876954;29;20040;-96
2023/02/28 06:02:57;;;;;;;8.63;5.20;;;;;;;8.60;70.50;100243.94;4875070;29;20037;-96
2023/02/28 06:13:26;;;;;;;7.32;4.32;;;;;;;8.57;70.66;100247.91;4909560;29;20045;-95
2023/02/28 06:18:40;;;;;;;8.70;4.88;;;;;;;8.75;69.98;100254.19;4904610;28;20061;-96
2023/02/28 06:21:16;;;;;;;11.63;5.05;;;;;;;8.65;69.84;100242.19;4874438;29;20486;-95
2023/02/28 06:24:01;;;;;;;;;;;;;;;;;;;;;
2023/02/28 06:56:05;;;;;;;10.10;4.20;;;;;;;9.36;68.19;100281.53;4929657;28;20045;-94
2023/02/28 06:58:52;;;;;;;6.05;4.53;;;;;;;9.13;68.21;100268.97;4891524;29;20056;-96
2023/02/28 07:11:22;;;;;;;8.07;4.50;;;;;;;9.43;68.27;100274.16;5922393;23;20049;-91
2023/02/28 07:13:58;;;;;;;9.18;4.28;;;;;;;9.51;67.55;100266.53;4919960;29;20055;-92
2023/02/28 07:16:29;;;;;;;7.00;4.07;;;;;;;9.47;66.57;100253.81;4891548;29;20490;-93
2023/02/28 07:19:04;;;;;;;7.15;4.28;;;;;;;9.41;66.92;100242.13;4890632;29;20578;-94
2023/02/28 07:30:20;;;;;;;7.70;4.13;;;;;;;9.75;66.14;100260.22;5332063;23;20130;-93
2023/02/28 07:32:49;;;;;;;10.88;4.57;;;;;;;9.70;66.41;100239.44;4875006;29;20115;-91
2023/02/28 07:35:15;;;;;;;6.90;3.63;;;;;;;9.87;65.82;100248.34;4906059;29;20024;-91
2023/02/28 07:37:41;;;;;;;5.80;3.90;;;;;;;9.85;65.23;100257.72;4874969;29;20406;-93
2023/02/28 07:40:09;;;;;;;4.80;3.45;;;;;;;9.73;66.15;100267.72;4906365;29;20040;-92
2023/02/28 07:42:35;;;;;;;7.65;4.22;;;;;;;9.64;66.18;100257.34;4876700;29;20043;-94
2023/02/28 07:45:01;;;;;;;6.43;3.92;;;;;;;9.71;66.21;100262.59;4875476;29;20051;-94
2023/02/28 07:47:28;;;;;;;7.70;3.90;;;;;;;9.40;66.79;100264.72;4877039;29;20032;-94
2023/02/28 07:49:54;;;;;;;18.92;11.82;;;;;;;9.53;66.68;100273.56;4874869;29;20032;-92
2023/02/28 07:52:45;;;;;;;6.28;4.20;;;;;;;9.55;67.34;100274.13;4873913;29;20040;-91
2023/02/28 07:55:38;;;;;;;;;;;;;;;;;;;;;
2023/02/28 07:58:06;;;;;;;16.85;9.57;;;;;;;9.89;65.86;100281.22;4855665;29;20045;-91
2023/02/28 08:00:52;;;;;;;6.55;4.45;;;;;;;9.88;65.27;100294.91;4835438;29;20040;-93
2023/02/28 08:03:21;;;;;;;7.53;4.50;;;;;;;9.90;65.69;100284.75;4852944;29;20036;-93
2023/02/28 08:05:52;;;;;;;7.38;3.72;;;;;;;10.01;64.99;100305.38;4849267;29;20419;-94
2023/02/28 08:08:18;;;;;;;9.15;4.60;;;;;;;9.85;65.76;100306.97;4835652;29;20143;-90
2023/02/28 08:10:44;;;;;;;10.93;4.88;;;;;;;9.76;66.00;100284.22;4835453;29;20045;-90
2023/02/28 08:13:10;;;;;;;7.50;4.68;;;;;;;9.77;66.11;100310.03;4834018;29;20088;-93
2023/02/28 08:15:42;;;;;;;9.73;4.90;;;;;;;9.84;65.67;100312.59;4849933;29;20531;-93
2023/02/28 08:18:11;;;;;;;8.23;4.35;;;;;;;9.94;65.21;100309.25;4851042;29;20029;-92
2023/02/28 08:20:37;;;;;;;6.80;4.43;;;;;;;9.85;65.72;100308.84;4849289;29;20492;-92
2023/02/28 08:23:02;;;;;;;7.22;4.57;;;;;;;9.91;65.09;100306.00;4835246;29;20029;-96
2023/02/28 08:25:31;;;;;;;8.57;5.35;;;;;;;9.93;65.25;100299.56;4865201;29;20059;-94
2023/02/28 08:27:59;;;;;;;6.30;4.63;;;;;;;10.04;65.27;100302.22;4875915;29;20035;-92
2023/02/28 08:30:25;;;;;;;8.73;5.55;;;;;;;9.91;64.93;100289.84;4893310;29;20051;-93
2023/02/28 08:32:50;;;;;;;8.35;5.47;;;;;;;9.78;65.23;100276.72;4876745;29;20072;-93
2023/02/28 08:35:16;;;;;;;9.75;6.40;;;;;;;10.07;65.22;100301.72;4877374;29;20088;-92
2023/02/28 08:37:41;;;;;;;8.77;5.55;;;;;;;9.98;65.10;100287.03;4872974;29;20038;-92
2023/02/28 08:40:08;;;;;;;10.05;6.57;;;;;;;10.12;64.52;100291.03;4903541;29;20471;-92
2023/02/28 08:42:33;;;;;;;10.30;6.32;;;;;;;10.24;64.65;100304.44;4888396;29;20028;-91
2023/02/28 08:44:59;;;;;;;11.88;5.45;;;;;;;10.35;63.76;100302.75;4904685;29;20041;-93
2023/02/28 08:47:24;;;;;;;14.88;5.90;;;;;;;10.49;63.56;100301.38;4871676;29;20028;-91
2023/02/28 08:49:50;;;;;;;8.73;5.75;;;;;;;10.68;62.75;100293.03;4873544;29;20028;-92
2023/02/28 08:52:15;;;;;;;8.00;5.93;;;;;;;10.74;62.96;100304.72;4871604;29;20103;-92
2023/02/28 08:54:41;;;;;;;6.75;5.10;;;;;;;10.45;62.52;100283.25;4888026;29;20032;-92
2023/02/28 08:57:06;;;;;;;8.95;5.85;;;;;;;10.63;62.78;100304.56;4871214;29;20524;-92
2023/02/28 08:59:58;;;;;;;7.97;5.55;;;;;;;10.43;63.70;100285.38;4875638;29;20028;-94
2023/02/28 09:02:48;;;;;;;11.70;6.93;;;;;;;10.65;64.17;100310.50;4872121;29;20051;-96
2023/02/28 09:15:49;;;;;;;12.15;7.82;;;;;;;10.76;62.75;100316.06;4948994;29;20067;-96
2023/02/28 09:18:16;;;;;;;8.57;6.18;;;;;;;10.29;63.82;100293.78;4931927;29;20076;-96
2023/02/28 09:23:38;;;;;;;9.48;5.65;;;;;;;10.48;63.75;100315.09;5088558;23;20048;-95
2023/02/28 09:26:51;;;;;;;10.93;5.97;;;;;;;10.60;62.15;100293.47;4938516;29;20040;-95
2023/02/28 09:29:32;;;;;;;5.90;4.28;;;;;;;10.47;63.01;100306.19;4937168;29;20028;-95
2023/02/28 09:50:45;;;;;;;10.73;7.10;;;;;;;10.43;62.87;100318.50;4913358;28;20056;-96
2023/02/28 09:53:42;;;;;;;7.85;5.28;;;;;;;10.62;62.97;100332.53;4915775;29;20028;-96
2023/02/28 09:59:34;;;;;;;8.27;4.72;;;;;;;10.30;64.52;100334.97;5437555;23;20195;-94
2023/02/28 10:02:26;;;;;;;10.05;5.47;;;;;;;10.45;63.99;100334.41;4921295;29;20067;-95
2023/02/28 10:05:12;;;;;;;;;;;;;;;10.60;64.30;100334.66;5160158;23;21326;-94
2023/02/28 10:07:40;;;;;;;7.32;4.63;;;;;;;10.65;63.08;100336.63;4910768;29;19913;-96
2023/02/28 10:11:11;;;;;;;;;;;;;;;;;;;;;
2023/02/28 10:14:21;;;;;;;9.07;5.90;;;;;;;10.69;62.59;100319.75;4946047;23;20080;-96
2023/02/28 10:17:05;;;;;;;8.82;5.05;;;;;;;10.82;62.49;100315.06;4922532;29;20038;-90
2023/02/28 10:19:49;;;;;;;6.32;4.57;;;;;;;10.64;63.55;100322.34;4890280;29;20023;-91
2023/02/28 10:22:33;;;;;;;6.47;4.15;;;;;;;10.65;63.20;100299.75;4919296;29;20068;-94
2023/02/28 10:25:02;;;;;;;8.35;4.60;;;;;;;10.62;62.95;100296.72;4925724;29;20051;-94
2023/02/28 10:27:35;;;;;;;24.35;13.30;;;;;;;10.81;62.78;100290.03;4910129;29;20024;-94
2023/02/28 10:30:13;;;;;;;5.78;4.10;;;;;;;11.12;61.28;100295.81;4895091;29;20032;-96
2023/02/28 10:32:42;;;;;;;6.65;4.43;;;;;;;11.05;61.67;100297.88;4909074;29;20039;-95
2023/02/28 10:35:26;;;;;;;;;;;;;;;;;;;;;
2023/02/28 10:38:07;;;;;;;10.23;5.82;;;;;;;10.72;62.60;100292.28;4914013;29;20091;-94
2023/02/28 10:44:06;;;;;;;8.90;5.10;;;;;;;10.65;62.92;100278.19;4946284;23;20067;-92
2023/02/28 11:05:40;;;;;;;;;;;;;;;;;;;;;
2023/02/28 11:14:21;;;;;;;10.85;7.32;;;;;;;10.46;64.88;100250.72;5065977;23;20101;-94
2023/02/28 11:17:00;;;;;;;17.33;9.40;;;;;;;10.42;65.03;100246.06;4934332;29;20086;-95
2023/02/28 11:19:44;;;;;;;9.27;5.68;;;;;;;10.28;65.50;100230.22;4914511;29;20028;-94
2023/02/28 11:22:13;;;;;;;10.35;5.90;;;;;;;10.27;65.63;100238.53;4883518;29;20092;-94
2023/02/28 11:25:27;;;;;;;11.77;5.80;;;;;;;10.58;64.00;100260.56;4875455;29;20134;-93
2023/02/28 11:28:31;;;;;;;7.88;5.45;;;;;;;10.38;64.33;100229.59;4898544;29;20104;-94
2023/02/28 11:39:46;;;;;;;11.80;7.80;;;;;;;10.69;64.40;100259.69;4931873;29;20138;-92
2023/02/28 11:42:51;;;;;;;10.45;6.75;;;;;;;10.31;65.95;100255.84;4886344;29;20048;-92
2023/02/28 11:45:45;;;;;;;14.52;7.95;;;;;;;10.34;65.34;100252.69;4891137;29;20071;-94
2023/02/28 11:48:48;;;;;;;9.65;7.10;;;;;;;10.30;64.87;100233.50;4887402;29;20119;-92
2023/02/28 11:51:37;;;;;;;;;;;;;;;;;;;;;
2023/02/28 11:54:47;;;;;;;15.77;9.25;;;;;;;10.12;65.74;100239.91;4895361;29;20123;-94
2023/02/28 11:58:14;;;;;;;15.30;8.30;;;;;;;10.06;65.72;100232.00;4903694;29;20055;-94
2023/02/28 12:01:12;;;;;;;12.20;7.00;;;;;;;10.10;65.54;100244.72;4899954;29;20135;-94
2023/02/28 12:04:28;;;;;;;17.33;10.07;;;;;;;10.11;66.07;100243.66;4906526;29;20028;-93
2023/02/28 12:07:17;;;;;;;14.68;8.32;;;;;;;10.13;66.47;100238.06;4910971;29;20028;-95
2023/02/28 12:13:54;;;;;;;;;;;;;;;;;;;;;
2023/02/28 12:27:59;;;;;;;11.52;8.07;;;;;;;10.18;66.64;100246.19;4818499;29;20102;-93
2023/02/28 12:31:25;;;;;;;;;;;;;;;;;;;;;
2023/02/28 12:43:26;;;;;;;21.00;10.57;;;;;;;9.81;67.62;100224.31;5289181;23;20051;-95
2023/02/28 12:52:23;;;;;;;;;;;;;;;;;;;;;
2023/02/28 12:55:46;;;;;;;11.10;7.93;;;;;;;9.73;68.69;100233.56;4933001;29;20449;-95
2023/02/28 12:58:53;;;;;;;13.98;7.97;;;;;;;9.70;68.99;100231.38;4926906;29;20036;-95
2023/02/28 13:01:57;;;;;;;14.07;8.68;;;;;;;9.40;69.63;100240.53;4921512;29;20051;-94
2023/02/28 13:05:13;;;;;;;;;;;;;;;;;;;;;
2023/02/28 13:08:30;;;;;;;12.18;8.23;;;;;;;9.29;70.33;100234.09;4809137;29;20095;-95
2023/02/28 13:19:53;;;;;;;12.25;8.45;;;;;;;8.76;71.67;100232.47;4892924;29;20064;-95
2023/02/28 13:22:20;;;;;;;12.80;8.65;;;;;;;8.77;72.21;100260.13;4863496;29;20045;-94
2023/02/28 13:28:06;;;;;;;;;;;;;;;;;;;;;
2023/02/28 14:03:05;;;;;;;13.65;9.02;;;;;;;8.19;75.90;100248.28;4919333;29;20055;-93
2023/02/28 14:05:35;;;;;;;16.23;9.40;;;;;;;8.18;75.30;100225.22;4904477;29;20036;-92
2023/02/28 14:08:07;;;;;;;14.65;10.13;;;;;;;8.24;74.94;100230.47;4873531;29;20482;-94
2023/02/28 14:22:43;;;;;;;16.52;10.07;;;;;;;7.81;77.08;100211.97;5809716;23;20340;-96
2023/02/28 14:25:59;;;;;;;30.77;16.38;;;;;;;7.97;75.69;100207.78;4863652;29;20029;-95
2023/02/28 14:32:38;;;;;;;22.92;10.27;;;;;;;8.10;74.79;100215.63;5069098;23;20176;-96
2023/02/28 14:36:17;;;;;;;15.18;9.20;;;;;;;8.08;75.09;100247.22;4947167;29;20067;-94
2023/02/28 15:11:01;;;;;;;14.23;9.10;;;;;;;8.06;75.59;100278.81;4906224;29;20063;-95
2023/02/28 15:13:55;;;;;;;17.58;11.45;;;;;;;7.96;75.27;100255.25;4893594;29;20032;-95
2023/02/28 15:16:38;;;;;;;15.93;10.20;;;;;;;8.05;74.21;100269.13;4910083;29;20043;-93
2023/02/28 15:29:55;;;;;;;13.00;8.45;;;;;;;8.01;74.32;100282.19;4899877;29;20060;-94
2023/02/28 15:32:35;;;;;;;13.48;8.55;;;;;;;7.87;73.97;100249.38;4854600;29;20058;-93
2023/02/28 15:35:24;;;;;;;12.10;7.80;;;;;;;7.93;73.55;100287.06;4861481;29;20032;-94
2023/02/28 15:38:20;;;;;;;18.17;10.20;;;;;;;7.77;74.57;100267.88;4892252;29;20057;-93
2023/02/28 15:40:57;;;;;;;15.02;10.32;;;;;;;7.90;73.74;100277.59;4855374;29;20043;-95
2023/02/28 15:49:46;;;;;;;12.75;8.32;;;;;;;7.88;74.40;100290.41;5099647;23;20055;-96
2023/02/28 15:52:21;;;;;;;11.75;7.32;;;;;;;7.56;74.06;100263.03;4913297;29;20519;-93
2023/02/28 15:54:59;;;;;;;16.13;8.25;;;;;;;7.72;74.35;100299.09;4894438;29;20039;-94
2023/02/28 15:57:28;;;;;;;25.80;14.02;;;;;;;7.60;74.56;100283.78;4893813;29;20028;-93
2023/02/28 16:03:30;;;;;;;16.20;7.25;;;;;;;7.60;73.91;100282.97;4934738;29;20046;-93
2023/02/28 16:06:37;;;;;;;14.57;8.57;;;;;;;7.76;74.39;100311.84;4894673;29;20032;-93
2023/02/28 16:09:37;;;;;;;16.38;9.82;;;;;;;7.64;74.41;100278.81;4914209;29;20103;-94
2023/02/28 16:12:38;;;;;;;12.57;7.78;;;;;;;7.59;73.64;100284.81;4907741;29;20040;-92
2023/02/28 16:15:22;;;;;;;26.40;13.93;;;;;;;7.68;74.80;100299.56;4882618;29;20506;-94
2023/02/28 16:17:48;;;;;;;10.90;6.95;;;;;;;7.61;74.52;100288.09;4857619;29;20043;-92
2023/02/28 16:20:49;;;;;;;11.73;8.30;;;;;;;7.71;74.58;100318.91;4871221;29;20040;-93
2023/02/28 16:23:59;;;;;;;9.90;5.50;;;;;;;7.57;73.84;100307.53;4871428;29;20044;-93
2023/02/28 16:29:41;;;;;;;10.73;7.25;;;;;;;7.51;75.79;100313.81;4815815;29;20054;-92
2023/02/28 16:32:26;;;;;;;11.00;7.03;;;;;;;7.58;75.11;100311.88;4812287;29;20062;-94
2023/02/28 16:35:08;;;;;;;;;;;;;;;;;;;;;
2023/02/28 16:37:50;;;;;;;;;;;;;;;;;;;;;
2023/02/28 16:40:20;;;;;;;8.95;5.03;;;;;;;7.39;74.17;100290.44;4851965;29;20036;-93
2023/02/28 16:43:16;;;;;;;8.98;6.18;;;;;;;7.52;74.82;100315.44;4840566;29;20555;-93
2023/02/28 16:48:45;;;;;;;9.80;5.18;;;;;;;7.46;74.28;100307.25;4904957;29;20047;-94
2023/02/28 16:51:25;;;;;;;10.73;4.82;;;;;;;7.67;74.40;100322.03;4908948;29;20035;-93
2023/02/28 16:54:17;;;;;;;9.52;5.30;;;;;;;7.59;75.73;100324.22;4906604;29;20524;-93
2023/02/28 16:56:54;;;;;;;9.13;5.63;;;;;;;7.52;75.33;100302.06;4925557;29;20031;-93
2023/02/28 17:02:14;;;;;;;;;;;;;;;;;;;;;
2023/02/28 17:05:20;;;;;;;11.38;6.50;;;;;;;7.83;74.48;100330.53;4927211;29;20110;-94
2023/02/28 17:14:43;;;;;;;5.90;4.00;;;;;;;7.90;73.53;100310.59;4870059;29;20518;-93
2023/02/28 17:17:59;;;;;;;;;;;;;;;;;;;;;
2023/02/28 17:20:13;;;;;;;9.27;5.55;;;;;;;7.91;73.00;100306.06;4867826;29;20038;-94
2023/02/28 17:22:39;;;;;;;7.72;4.70;;;;;;;8.00;72.32;100303.88;4881603;29;20047;-93
2023/02/28 17:25:07;;;;;;;6.93;4.72;;;;;;;8.06;72.09;100319.88;4885275;29;20076;-94
2023/02/28 17:34:19;;;;;;;10.00;6.20;;;;;;;7.67;72.73;100303.28;4895388;29;20087;-94
2023/02/28 17:36:47;;;;;;;8.38;5.35;;;;;;;7.85;72.28;100326.56;4867482;29;20034;-94
2023/02/28 17:39:14;;;;;;;10.57;5.50;;;;;;;7.61;73.29;100309.53;4883160;29;20047;-94
2023/02/28 17:41:42;;;;;;;9.43;6.40;;;;;;;7.54;73.64;100329.44;4883310;29;20037;-95
2023/02/28 17:44:24;;;;;;;11.00;6.60;;;;;;;7.61;74.36;100317.56;4881749;29;20124;-93
2023/02/28 17:46:58;;;;;;;19.65;10.93;;;;;;;7.69;74.16;100335.22;4891645;29;20410;-93
2023/02/28 17:49:28;;;;;;;16.48;9.60;;;;;;;7.74;73.93;100335.38;4905819;29;20118;-95
2023/02/28 17:51:56;;;;;;;14.40;7.80;;;;;;;7.76;73.53;100332.44;4937530;29;20435;-93
2023/02/28 17:54:27;;;;;;;18.92;9.07;;;;;;;7.79;73.76;100335.50;4906062;29;20043;-93
2023/02/28 17:56:54;;;;;;;15.00;9.15;;;;;;;7.63;75.07;100328.06;4921280;29;20034;-93
2023/02/28 17:59:20;;;;;;;17.27;8.02;;;;;;;7.72;74.53;100323.22;4920841;29;20035;-94
2023/02/28 18:01:47;;;;;;;12.77;7.35;;;;;;;7.74;74.69;100321.97;4905276;29;20486;-94
2023/02/28 18:04:15;;;;;;;6.75;4.72;;;;;;;7.59;74.13;100340.28;4905939;29;20134;-93
2023/02/28 18:06:49;;;;;;;9.10;5.65;;;;;;;7.72;73.93;100340.16;4936963;29;20432;-92
2023/02/28 18:09:17;;;;;;;8.38;5.40;;;;;;;7.65;73.37;100339.41;4921358;29;20106;-93
2023/02/28 18:11:47;;;;;;;9.80;5.68;;;;;;;7.51;73.63;100311.94;4904140;29;20410;-93
2023/02/28 18:14:14;;;;;;;8.82;5.47;;;;;;;7.68;73.45;100328.25;4905703;29;20509;-94
2023/02/28 18:16:41;;;;;;;11.23;5.68;;;;;;;7.58;73.74;100325.28;4904862;29;20039;-93
2023/02/28 18:19:08;;;;;;;16.67;10.32;;;;;;;7.73;73.84;100341.78;4921380;29;20050;-94
2023/02/28 18:21:35;;;;;;;12.75;6.88;;;;;;;7.43;73.21;100323.78;4905689;29;20040;-94
2023/02/28 18:24:03;;;;;;;11.20;6.35;;;;;;;7.56;73.64;100338.06;4919515;29;20043;-93
2023/02/28 18:26:29;;;;;;;10.98;7.00;;;;;;;7.48;73.45;100329.28;4905782;29;20126;-93
2023/02/28 18:28:56;;;;;;;11.95;6.93;;;;;;;7.57;73.13;100327.09;4889268;29;20055;-93
2023/02/28 18:31:22;;;;;;;10.32;6.55;;;;;;;7.51;73.20;100333.38;4905059;29;20122;-93
2023/02/28 18:33:49;;;;;;;7.97;4.65;;;;;;;7.56;73.88;100343.44;4904834;29;20524;-94
2023/02/28 18:36:15;;;;;;;11.23;6.55;;;;;;;7.43;73.87;100336.38;4920724;29;20421;-94
2023/02/28 18:38:42;;;;;;;13.07;7.05;;;;;;;7.42;74.03;100340.91;4920792;29;20486;-94
2023/02/28 18:41:10;;;;;;;10.63;6.95;;;;;;;7.37;74.75;100342.63;4920462;29;20434;-93
2023/02/28 18:43:38;;;;;;;8.25;5.13;;;;;;;7.46;73.89;100339.41;4920996;29;20080;-93
2023/02/28 18:46:10;;;;;;;9.30;5.43;;;;;;;7.35;74.79;100318.72;4890524;29;20038;-95
2023/02/28 18:48:40;;;;;;;15.20;7.65;;;;;;;7.58;74.54;100338.66;4938068;29;20091;-93
2023/02/28 18:51:17;;;;;;;24.55;10.18;;;;;;;7.53;73.29;100317.06;4919689;29;20107;-94
2023/02/28 18:53:45;;;;;;;9.27;5.38;;;;;;;7.64;73.75;100341.25;4920235;29;20063;-93
2023/02/28 18:56:12;;;;;;;13.88;7.40;;;;;;;7.46;73.81;100330.56;4905280;29;20495;-93
2023/02/28 18:58:40;;;;;;;9.02;5.32;;;;;;;7.59;73.57;100345.66;4904011;29;20197;-93
2023/02/28 19:01:22;;;;;;;10.80;5.40;;;;;;;7.52;73.82;100345.75;4920896;29;20123;-94
2023/02/28 19:03:50;;;;;;;7.07;4.50;;;;;;;7.45;74.11;100313.66;4905293;29;20115;-93
2023/02/28 19:06:18;;;;;;;6.65;4.40;;;;;;;7.56;74.72;100324.69;4936575;29;20034;-94
2023/02/28 19:08:44;;;;;;;6.38;4.20;;;;;;;7.46;74.44;100314.47;4905295;29;20067;-94
2023/02/28 19:11:13;;;;;;;6.80;3.88;;;;;;;7.53;73.39;100319.75;4889882;29;20032;-94
2023/02/28 19:13:39;;;;;;;6.90;4.43;;;;;;;7.33;74.59;100304.75;4904953;29;20038;-93
2023/02/28 19:16:05;;;;;;;9.60;5.72;;;;;;;7.25;75.25;100292.47;4889769;29;20032;-94
2023/02/28 19:18:35;;;;;;;6.28;4.20;;;;;;;7.45;75.39;100313.66;4921027;29;20486;-92
2023/02/28 19:21:01;;;;;;;4.97;3.33;;;;;;;7.33;73.91;100296.72;4889589;29;20036;-93
2023/02/28 19:23:30;;;;;;;5.25;3.90;;;;;;;7.17;74.32;100281.22;4905769;29;20028;-94
2023/02/28 19:25:55;;;;;;;7.07;4.60;;;;;;;7.33;73.94;100291.34;4908876;29;20027;-94
2023/02/28 19:28:23;;;;;;;6.45;3.70;;;;;;;7.45;74.11;100299.44;4909434;29;20520;-94
2023/02/28 19:30:49;;;;;;;8.98;5.40;;;;;;;7.54;73.88;100310.69;4924512;29;20027;-94
2023/02/28 19:33:16;;;;;;;10.77;6.00;;;;;;;7.50;74.35;100307.63;4924353;29;20065;-94
2023/02/28 19:35:41;;;;;;;10.75;6.57;;;;;;;7.57;74.07;100297.63;4907795;29;20426;-94
2023/02/28 19:38:08;;;;;;;11.60;5.90;;;;;;;7.44;74.65;100301.28;4908174;29;20023;-93
2023/02/28 19:40:34;;;;;;;11.32;6.82;;;;;;;7.41;75.02;100291.03;4923403;29;20458;-94
2023/02/28 19:43:01;;;;;;;8.13;5.57;;;;;;;7.38;75.70;100301.38;4907712;29;20122;-94
2023/02/28 19:45:28;;;;;;;8.20;5.88;;;;;;;7.46;75.39;100307.25;4908247;29;20544;-93
2023/02/28 19:47:59;;;;;;;9.43;6.05;;;;;;;7.41;75.45;100298.28;4907863;29;20027;-94
2023/02/28 19:50:30;;;;;;;10.00;6.28;;;;;;;7.45;75.74;100299.44;4924100;29;20031;-94
2023/02/28 19:52:57;;;;;;;8.15;4.78;;;;;;;7.61;75.22;100298.81;4907418;29;20086;-94
2023/02/28 19:55:24;;;;;;;9.25;6.38;;;;;;;7.72;75.09;100297.25;4924570;29;20028;-94
2023/02/28 19:57:56;;;;;;;12.65;5.80;;;;;;;7.72;74.91;100289.22;4924757;29;20106;-94
2023/02/28 20:00:21;;;;;;;9.55;5.97;;;;;;;7.87;74.49;100308.38;4907155;29;20028;-94
2023/02/28 20:02:51;;;;;;;12.30;6.40;;;;;;;7.79;74.57;100294.47;4907211;29;20102;-93
2023/02/28 20:05:18;;;;;;;8.60;4.50;;;;;;;7.77;74.15;100291.22;4908066;29;20414;-93
2023/02/28 20:07:44;;;;;;;7.57;4.60;;;;;;;7.59;74.59;100295.53;4908628;29;20537;-93
2023/02/28 20:10:13;;;;;;;7.90;4.32;;;;;;;7.74;73.99;100305.88;4908322;29;20040;-94
2023/02/28 20:12:38;;;;;;;6.88;4.47;;;;;;;7.65;73.50;100283.09;4909019;29;20494;-93
2023/02/28 20:15:05;;;;;;;8.48;4.57;;;;;;;7.73;73.46;100298.06;4908062;29;20039;-93
2023/02/28 20:17:32;;;;;;;9.48;5.75;;;;;;;7.69;73.99;100286.97;4923742;29;20039;-94
2023/02/28 20:20:01;;;;;;;6.38;3.92;;;;;;;7.67;73.36;100287.19;4907799;29;20032;-94
2023/02/28 20:22:27;;;;;;;8.43;4.90;;;;;;;7.57;74.42;100296.81;4922626;29;20036;-94
2023/02/28 20:24:54;;;;;;;8.65;4.80;;;;;;;7.63;74.17;100309.31;4922268;29;20079;-94
2023/02/28 20:27:21;;;;;;;8.02;4.50;;;;;;;7.74;74.34;100307.72;4938933;29;20398;-93
2023/02/28 20:29:48;;;;;;;7.40;4.47;;;;;;;7.64;74.05;100298.38;4923133;29;20031;-94
2023/02/28 20:32:18;;;;;;;10.45;6.50;;;;;;;7.62;73.82;100295.09;4906793;29;20040;-94
2023/02/28 20:34:45;;;;;;;6.47;4.13;;;;;;;7.57;74.67;100297.63;4905966;29;20426;-94
2023/02/28 20:37:11;;;;;;;6.82;4.32;;;;;;;7.55;74.69;100290.88;4921758;29;20071;-94
2023/02/28 20:39:38;;;;;;;6.85;3.85;;;;;;;7.62;74.27;100295.09;4906898;29;20508;-94
2023/02/28 20:42:07;;;;;;;9.30;4.85;;;;;;;7.53;73.93;100284.91;4906020;29;20441;-94
2023/02/28 20:44:34;;;;;;;7.57;4.60;;;;;;;7.37;75.06;100284.50;4922154;29;20039;-93
2023/02/28 20:47:00;;;;;;;7.22;4.38;;;;;;;7.18;75.76;100269.47;4922022;29;20035;-93
2023/02/28 20:49:27;;;;;;;6.57;4.03;;;;;;;7.38;75.80;100288.00;4905775;29;20403;-93
2023/02/28 20:51:53;;;;;;;5.50;3.72;;;;;;;7.47;75.42;100287.47;4906858;29;20032;-93
2023/02/28 20:54:18;;;;;;;7.25;3.70;;;;;;;7.45;75.81;100278.84;4906500;29;20031;-95
2023/02/28 20:56:44;;;;;;;5.93;4.07;;;;;;;7.33;76.06;100269.09;4906559;29;20035;-93
2023/02/28 20:59:11;;;;;;;4.82;3.38;;;;;;;7.50;76.17;100278.16;4905997;29;20028;-93
2023/02/28 21:01:39;;;;;;;4.82;2.80;;;;;;;7.56;75.87;100279.94;4905636;29;20052;-94
2023/02/28 21:04:05;;;;;;;6.10;3.35;;;;;;;7.35;75.83;100262.47;4922560;29;20027;-94
2023/02/28 21:06:35;;;;;;;5.30;3.25;;;;;;;7.29;75.98;100261.50;4906286;29;20413;-94
2023/02/28 21:09:04;;;;;;;3.10;2.33;;;;;;;7.40;75.71;100283.22;4922271;29;20042;-95
2023/02/28 21:11:33;;;;;;;4.88;3.25;;;;;;;7.42;75.83;100284.63;4937594;29;20486;-93
2023/02/28 21:14:02;;;;;;;4.55;2.83;;;;;;;7.43;75.67;100286.28;4921848;29;20032;-93
2023/02/28 21:16:29;;;;;;;3.88;2.92;;;;;;;7.41;75.79;100280.31;4905895;29;20090;-93
2023/02/28 21:19:04;;;;;;;4.05;3.00;;;;;;;7.52;75.58;100278.75;4917214;29;20050;-94
2023/02/28 21:21:33;;;;;;;5.18;2.60;;;;;;;7.21;76.26;100248.41;4921982;29;20517;-93
2023/02/28 21:24:00;;;;;;;5.72;3.25;;;;;;;7.41;76.48;100277.66;4921789;29;20478;-95
2023/02/28 21:26:43;;;;;;;5.82;3.25;;;;;;;6.98;77.15;100267.03;4937565;29;20035;-93
2023/02/28 21:29:11;;;;;;;3.85;2.65;;;;;;;7.28;76.22;100270.59;4937271;29;20465;-93
2023/02/28 21:31:39;;;;;;;5.35;2.85;;;;;;;7.01;77.33;100254.00;4921577;29;20028;-94
2023/02/28 21:34:07;;;;;;;6.15;3.10;;;;;;;7.25;77.14;100275.56;4920711;29;20054;-94
2023/02/28 21:36:46;;;;;;;4.55;3.10;;;;;;;6.84;78.07;100251.09;4919982;29;20430;-95
2023/02/28 21:39:15;;;;;;;6.15;3.50;;;;;;;7.08;77.84;100270.00;4922082;29;20521;-93
2023/02/28 21:41:43;;;;;;;5.68;3.67;;;;;;;7.18;76.41;100270.31;4905637;29;20027;-94
2023/02/28 21:44:16;;;;;;;6.35;4.63;;;;;;;7.04;77.50;100258.91;4905712;29;20046;-93
2023/02/28 21:46:45;;;;;;;7.05;4.20;;;;;;;7.12;76.40;100252.44;4922511;29;20482;-94
2023/02/28 21:49:13;;;;;;;5.22;3.95;;;;;;;7.15;76.44;100256.53;4921522;29;20024;-94
2023/02/28 21:51:41;;;;;;;6.97;5.35;;;;;;;7.03;76.99;100264.47;4922089;29;20042;-94
2023/02/28 21:54:10;;;;;;;7.63;4.43;;;;;;;6.92;77.47;100244.63;4907016;29;20032;-94
2023/02/28 21:56:38;;;;;;;8.98;5.30;;;;;;;6.87;77.50;100247.97;4905774;29;20032;-94
2023/02/28 21:59:05;;;;;;;8.82;5.70;;;;;;;7.03;77.24;100261.81;4921702;29;20047;-94
2023/02/28 22:01:37;;;;;;;9.45;5.28;;;;;;;7.26;76.69;100274.50;4906014;29;20047;-95
2023/02/28 22:04:04;;;;;;;7.15;4.72;;;;;;;7.09;76.73;100258.22;4905428;29;20032;-94
2023/02/28 22:06:32;;;;;;;9.70;5.60;;;;;;;7.18;77.08;100270.31;4905288;29;20036;-94
2023/02/28 22:08:59;;;;;;;6.55;4.72;;;;;;;7.05;77.27;100271.25;4920436;29;20447;-93
2023/02/28 22:11:26;;;;;;;8.25;5.50;;;;;;;7.06;77.51;100278.25;4904568;29;20039;-93
2023/02/28 22:13:55;;;;;;;8.60;5.70;;;;;;;7.01;77.30;100270.06;4904911;29;20399;-93
2023/02/28 22:16:22;;;;;;;8.45;5.13;;;;;;;7.06;77.50;100280.94;4904946;29;20126;-94
2023/02/28 22:18:49;;;;;;;7.25;5.25;;;;;;;7.11;76.51;100276.75;4904015;29;20051;-94
2023/02/28 22:21:17;;;;;;;6.88;4.60;;;;;;;7.17;76.05;100265.97;4920449;29;20035;-94
2023/02/28 22:23:46;;;;;;;6.55;4.72;;;;;;;7.05;77.40;100270.44;4918543;29;20181;-94
2023/02/28 22:26:15;;;;;;;6.60;4.55;;;;;;;7.17;77.25;100278.56;4936386;29;20589;-94
2023/02/28 22:28:41;;;;;;;7.93;4.82;;;;;;;7.34;76.94;100284.94;4904669;29;20035;-94
2023/02/28 22:31:20;;;;;;;6.97;4.38;;;;;;;7.27;77.07;100286.88;4904446;29;20036;-95
2023/02/28 22:33:45;;;;;;;7.53;4.07;;;;;;;7.16;77.89;100287.63;4920771;29;20027;-94